createdAt,value
2022-10-15T00:02:02.929Z,14.57
2022-10-15T00:04:31.610Z,15.68
2022-10-15T00:06:59.632Z,14.30
2022-10-15T00:09:27.974Z,14.20
2022-10-15T00:11:55.973Z,15.05
2022-10-15T00:14:23.997Z,16.38
2022-10-15T00:16:51.991Z,13.40
2022-10-15T00:19:21.324Z,15.32
2022-10-15T00:21:49.370Z,15.02
2022-10-15T00:24:17.461Z,16.70
2022-10-15T00:26:45.470Z,13.80
2022-10-15T00:29:13.464Z,14.25
2022-10-15T00:31:41.499Z,13.75
2022-10-15T00:34:10.489Z,14.25
2022-10-15T00:36:39.825Z,13.93
2022-10-15T00:39:07.897Z,13.88
2022-10-15T00:41:36.908Z,14.82
2022-10-15T00:44:20.079Z,15.23
2022-10-15T00:46:48.278Z,15.60
2022-10-15T00:49:18.685Z,14.90
2022-10-15T00:51:48.961Z,13.65
2022-10-15T00:54:17.008Z,14.75
2022-10-15T00:56:45.442Z,13.52
2022-10-15T00:59:13.642Z,13.05
2022-10-15T01:01:41.645Z,15.02
2022-10-15T01:04:09.674Z,14.23
2022-10-15T01:06:37.797Z,12.93
2022-10-15T01:09:07.171Z,13.23
2022-10-15T01:11:39.402Z,17.30
2022-10-15T01:14:14.364Z,14.85
2022-10-15T01:16:45.648Z,12.55
2022-10-15T01:19:20.933Z,13.65
2022-10-15T01:21:50.866Z,14.68
2022-10-15T01:24:51.457Z,13.68
2022-10-15T01:27:29.180Z,14.25
2022-10-15T01:30:06.828Z,14.05
2022-10-15T01:32:38.026Z,14.63
2022-10-15T01:35:09.435Z,12.48
2022-10-15T01:37:39.403Z,14.00
2022-10-15T01:40:09.274Z,12.55
2022-10-15T01:42:41.732Z,13.30
2022-10-15T01:45:11.067Z,15.70
2022-10-15T01:47:53.589Z,13.57
2022-10-15T01:50:24.448Z,14.02
2022-10-15T01:52:52.465Z,14.90
2022-10-15T01:55:21.364Z,13.95
2022-10-15T01:57:49.411Z,14.00
2022-10-15T02:00:17.779Z,13.25
2022-10-15T02:02:45.795Z,12.75
2022-10-15T02:05:16.872Z,12.50
2022-10-15T02:07:48.465Z,14.93
2022-10-15T02:10:19.729Z,13.50
2022-10-15T02:12:53.328Z,13.40
2022-10-15T02:15:24.703Z,12.77
2022-10-15T02:17:55.976Z,13.38
2022-10-15T02:20:29.961Z,13.75
2022-10-15T02:23:00.877Z,12.93
2022-10-15T02:25:28.857Z,12.30
2022-10-15T02:27:57.495Z,12.57
2022-10-15T02:30:26.652Z,15.50
2022-10-15T02:32:56.645Z,12.93
2022-10-15T02:35:25.046Z,13.02
2022-10-15T02:37:55.382Z,14.40
2022-10-15T02:40:23.636Z,13.75
2022-10-15T02:42:52.551Z,13.45
2022-10-15T02:45:21.180Z,13.95
2022-10-15T02:47:49.556Z,13.93
2022-10-15T02:50:19.510Z,13.13
2022-10-15T02:52:47.567Z,13.32
2022-10-15T02:55:17.426Z,12.30
2022-10-15T02:57:45.781Z,15.70
2022-10-15T03:00:14.719Z,13.75
2022-10-15T03:02:42.764Z,13.32
2022-10-15T03:05:10.993Z,18.50
2022-10-15T03:07:39.069Z,11.85
2022-10-15T03:10:07.913Z,15.57
2022-10-15T03:12:37.571Z,14.23
2022-10-15T03:15:07.970Z,13.30
2022-10-15T03:17:37.196Z,13.23
2022-10-15T03:20:05.852Z,14.35
2022-10-15T03:22:37.666Z,13.68
2022-10-15T03:25:06.531Z,13.82
2022-10-15T03:27:34.894Z,14.48
2022-10-15T03:30:04.625Z,12.55
2022-10-15T03:32:36.278Z,15.85
2022-10-15T03:35:06.962Z,12.85
2022-10-15T03:37:35.127Z,15.52
2022-10-15T03:40:03.508Z,12.40
2022-10-15T03:42:31.531Z,13.43
2022-10-15T03:45:02.003Z,13.15
2022-10-15T03:47:31.598Z,16.35
2022-10-15T03:49:59.639Z,13.65
2022-10-15T03:52:27.672Z,13.40
2022-10-15T03:54:56.294Z,13.80
2022-10-15T03:57:25.697Z,13.20
2022-10-15T03:59:59.700Z,13.70
2022-10-15T04:02:31.610Z,12.68
2022-10-15T04:04:59.673Z,12.05
2022-10-15T04:07:27.877Z,13.00
2022-10-15T04:09:55.882Z,12.88
2022-10-15T04:12:28.271Z,13.15
2022-10-15T04:14:56.400Z,13.48
2022-10-15T04:17:24.766Z,12.85
2022-10-15T04:19:54.145Z,13.05
2022-10-15T04:22:23.336Z,11.23
2022-10-15T04:24:56.837Z,13.20
2022-10-15T04:27:27.990Z,13.23
2022-10-15T04:30:06.258Z,11.88
2022-10-15T04:32:34.465Z,12.10
2022-10-15T04:35:03.983Z,12.55
2022-10-15T04:37:48.938Z,13.07
2022-10-15T04:40:17.099Z,18.13
2022-10-15T04:42:45.989Z,13.23
2022-10-15T04:45:14.374Z,13.38
2022-10-15T04:47:42.877Z,13.43
2022-10-15T04:50:15.644Z,12.95
2022-10-15T04:53:02.377Z,12.52
2022-10-15T04:55:34.506Z,12.07
2022-10-15T04:58:03.693Z,13.85
2022-10-15T05:00:32.117Z,12.05
2022-10-15T05:03:12.010Z,15.85
2022-10-15T05:05:49.274Z,13.60
2022-10-15T05:08:18.055Z,12.88
2022-10-15T05:11:12.934Z,15.93
2022-10-15T05:13:41.001Z,16.95
2022-10-15T05:16:10.993Z,13.27
2022-10-15T05:18:39.445Z,13.88
2022-10-15T05:21:09.134Z,13.70
2022-10-15T05:23:37.824Z,13.52
2022-10-15T05:26:40.173Z,12.25
2022-10-15T05:29:08.268Z,12.10
2022-10-15T05:31:36.275Z,12.05
2022-10-15T05:34:16.614Z,13.45
2022-10-15T05:36:52.636Z,12.98
2022-10-15T05:39:20.741Z,12.35
2022-10-15T05:41:49.431Z,13.35
2022-10-15T05:44:17.606Z,12.80
2022-10-15T05:46:45.640Z,11.77
2022-10-15T05:49:20.146Z,12.27
2022-10-15T05:51:57.164Z,13.57
2022-10-15T05:54:42.127Z,13.20
2022-10-15T05:57:10.120Z,13.15
2022-10-15T05:59:38.101Z,12.80
2022-10-15T06:02:06.233Z,13.55
2022-10-15T06:04:35.827Z,16.30
2022-10-15T06:07:05.485Z,16.83
2022-10-15T06:09:33.490Z,14.45
2022-10-15T06:12:01.517Z,16.52
2022-10-15T06:14:30.188Z,13.63
2022-10-15T06:16:58.201Z,15.35
2022-10-15T06:19:26.348Z,13.13
2022-10-15T06:21:54.387Z,13.57
2022-10-15T06:24:23.808Z,12.52
2022-10-15T06:26:51.822Z,14.45
2022-10-15T06:29:20.097Z,14.18
2022-10-15T06:31:48.086Z,13.07
2022-10-15T06:34:16.199Z,12.98
2022-10-15T06:36:44.206Z,15.68
2022-10-15T06:39:12.256Z,17.10
2022-10-15T06:41:42.390Z,14.50
2022-10-15T06:44:10.436Z,15.10
2022-10-15T06:46:38.430Z,17.27
2022-10-15T06:49:06.514Z,15.00
2022-10-15T06:51:37.592Z,13.75
2022-10-15T06:54:05.630Z,14.73
2022-10-15T06:56:33.631Z,14.65
2022-10-15T06:59:03.032Z,11.93
2022-10-15T07:01:31.049Z,15.43
2022-10-15T07:03:59.068Z,15.65
2022-10-15T07:06:27.167Z,14.70
2022-10-15T07:08:55.158Z,13.82
2022-10-15T07:11:23.200Z,13.30
2022-10-15T07:13:51.217Z,12.60
2022-10-15T07:16:20.630Z,14.77
2022-10-15T07:18:49.071Z,13.68
2022-10-15T07:21:17.077Z,14.85
2022-10-15T07:23:45.069Z,14.23
2022-10-15T07:26:13.525Z,13.88
2022-10-15T07:28:41.617Z,12.55
2022-10-15T07:31:09.725Z,14.00
2022-10-15T07:33:39.133Z,20.77
2022-10-15T07:36:07.978Z,14.45
2022-10-15T07:38:36.140Z,15.52
2022-10-15T07:41:04.685Z,15.80
2022-10-15T07:43:33.445Z,13.60
2022-10-15T07:46:01.510Z,26.35
2022-10-15T07:48:29.580Z,12.65
2022-10-15T07:50:59.038Z,13.88
2022-10-15T07:53:27.226Z,15.65
2022-10-15T07:56:00.000Z,13.73
2022-10-15T07:58:31.483Z,12.38
2022-10-15T08:01:02.060Z,15.45
2022-10-15T08:03:31.930Z,13.23
2022-10-15T08:06:03.108Z,12.85
2022-10-15T08:08:31.314Z,13.65
2022-10-15T08:10:59.820Z,13.68
2022-10-15T08:13:28.064Z,13.98
2022-10-15T08:15:59.245Z,11.77
2022-10-15T08:18:28.464Z,12.52
2022-10-15T08:20:59.272Z,14.25
2022-10-15T08:23:28.702Z,15.38
2022-10-15T08:25:58.313Z,18.75
2022-10-15T08:28:26.478Z,17.70
2022-10-15T08:30:55.601Z,19.52
2022-10-15T08:33:23.580Z,23.10
2022-10-15T08:35:51.710Z,30.08
2022-10-15T08:38:19.969Z,24.90
2022-10-15T08:40:50.287Z,26.38
2022-10-15T08:43:21.010Z,35.13
2022-10-15T08:45:50.200Z,36.78
2022-10-15T08:48:21.175Z,54.47
2022-10-15T08:50:53.947Z,63.63
2022-10-15T08:53:24.262Z,40.05
2022-10-15T08:55:57.957Z,50.47
2022-10-15T08:58:30.224Z,45.95
2022-10-15T09:00:59.288Z,49.78
2022-10-15T09:03:34.963Z,44.33
2022-10-15T09:06:07.867Z,49.15
2022-10-15T09:08:39.612Z,64.25
2022-10-15T09:11:10.794Z,64.75
2022-10-15T09:13:41.165Z,57.53
2022-10-15T09:16:13.538Z,62.35
2022-10-15T09:18:42.771Z,61.97
2022-10-15T09:21:11.406Z,60.65
2022-10-15T09:23:41.325Z,76.07
2022-10-15T09:26:17.004Z,65.85
2022-10-15T09:28:47.607Z,70.32
2022-10-15T09:31:18.918Z,63.15
2022-10-15T09:33:47.940Z,66.45
2022-10-15T09:36:21.015Z,60.13
2022-10-15T09:38:55.414Z,59.67
2022-10-15T09:41:29.459Z,69.32
2022-10-15T09:43:58.032Z,59.42
2022-10-15T09:46:30.507Z,56.42
2022-10-15T09:49:02.795Z,49.85
2022-10-15T09:51:32.851Z,54.15
2022-10-15T09:54:03.570Z,53.88
2022-10-15T09:56:35.110Z,58.42
2022-10-15T09:59:05.926Z,54.17
2022-10-15T10:01:36.973Z,52.55
2022-10-15T10:04:14.128Z,55.42
2022-10-15T10:06:46.106Z,52.50
2022-10-15T10:09:17.829Z,54.50
2022-10-15T10:11:51.698Z,47.03
2022-10-15T10:14:24.863Z,53.20
2022-10-15T10:17:08.858Z,55.60
2022-10-15T10:19:37.904Z,45.67
2022-10-15T10:22:07.975Z,49.35
2022-10-15T10:24:35.995Z,46.15
2022-10-15T10:27:18.212Z,45.95
2022-10-15T10:29:49.633Z,45.30
2022-10-15T10:32:21.193Z,45.55
2022-10-15T10:34:52.658Z,49.92
2022-10-15T10:37:21.379Z,46.90
2022-10-15T10:39:53.686Z,49.58
2022-10-15T10:42:28.508Z,44.88
2022-10-15T10:44:56.482Z,44.08
2022-10-15T10:47:24.797Z,45.50
2022-10-15T10:49:57.337Z,43.08
2022-10-15T10:52:26.938Z,44.45
2022-10-15T10:55:00.722Z,53.25
2022-10-15T10:57:41.950Z,42.47
2022-10-15T11:00:13.625Z,41.95
2022-10-15T11:02:44.113Z,37.45
2022-10-15T11:05:12.340Z,39.70
2022-10-15T11:07:45.238Z,39.00
2022-10-15T11:10:15.370Z,38.28
2022-10-15T11:12:58.742Z,36.10
2022-10-15T11:15:32.119Z,38.55
2022-10-15T11:18:08.008Z,48.42
2022-10-15T11:20:57.848Z,43.38
2022-10-15T11:23:36.985Z,39.53
2022-10-15T11:26:09.050Z,35.78
2022-10-15T11:28:46.792Z,36.47
2022-10-15T11:31:17.165Z,37.95
2022-10-15T11:33:55.929Z,34.78
2022-10-15T11:36:34.893Z,32.83
2022-10-15T11:39:13.286Z,36.75
2022-10-15T11:41:43.933Z,38.08
2022-10-15T11:44:23.228Z,36.03
2022-10-15T11:46:54.242Z,35.78
2022-10-15T11:49:28.064Z,26.42
2022-10-15T11:52:17.875Z,31.35
2022-10-15T11:54:47.009Z,34.25
2022-10-15T11:57:16.477Z,34.85
2022-10-15T11:59:48.692Z,34.75
2022-10-15T12:02:18.272Z,33.90
2022-10-15T12:04:47.784Z,31.98
2022-10-15T12:07:17.934Z,28.95
2022-10-15T12:09:48.062Z,34.17
2022-10-15T12:12:20.728Z,30.80
2022-10-15T12:14:51.438Z,27.27
2022-10-15T12:17:23.104Z,29.27
2022-10-15T12:19:54.380Z,27.55
2022-10-15T12:22:34.247Z,26.92
2022-10-15T12:25:02.811Z,28.30
2022-10-15T12:27:35.392Z,27.63
2022-10-15T12:30:20.350Z,26.90
2022-10-15T12:32:50.367Z,30.35
2022-10-15T12:35:24.304Z,33.28
2022-10-15T12:37:52.401Z,24.92
2022-10-15T12:40:28.745Z,30.02
2022-10-15T12:42:59.651Z,27.60
2022-10-15T12:45:39.014Z,26.00
2022-10-15T12:48:30.158Z,29.95
2022-10-15T12:51:40.959Z,23.73
2022-10-15T12:54:39.852Z,27.40
2022-10-15T12:57:44.554Z,25.23
2022-10-15T13:00:42.446Z,26.75
2022-10-15T13:03:34.349Z,25.35
2022-10-15T13:06:33.310Z,24.70
2022-10-15T13:09:22.494Z,26.75
2022-10-15T13:14:29.721Z,23.42
2022-10-15T13:17:03.553Z,24.83
2022-10-15T13:19:32.381Z,24.13
2022-10-15T13:22:01.932Z,26.02
2022-10-15T13:24:30.867Z,21.63
2022-10-15T13:27:01.174Z,21.48
2022-10-15T13:29:29.370Z,25.73
2022-10-15T13:31:58.350Z,23.52
2022-10-15T13:34:29.373Z,22.90
2022-10-15T13:36:58.982Z,22.67
2022-10-15T13:39:31.549Z,21.85
2022-10-15T13:42:10.791Z,24.02
2022-10-15T13:44:38.763Z,24.83
2022-10-15T13:47:20.874Z,23.52
2022-10-15T13:49:50.215Z,23.08
2022-10-15T13:52:18.248Z,23.48
2022-10-15T13:54:46.523Z,23.60
2022-10-15T13:57:17.937Z,21.13
2022-10-15T13:59:46.484Z,22.73
2022-10-15T14:02:14.506Z,20.90
2022-10-15T14:04:44.343Z,22.17
2022-10-15T14:07:23.588Z,22.50
2022-10-15T14:09:51.793Z,23.15
2022-10-15T14:12:19.785Z,21.88
2022-10-15T14:14:48.377Z,22.80
2022-10-15T14:17:23.599Z,21.65
2022-10-15T14:20:14.408Z,24.33
2022-10-15T14:22:42.913Z,20.23
2022-10-15T14:27:46.001Z,21.60
2022-10-15T14:30:15.438Z,21.23
2022-10-15T14:32:46.903Z,21.42
2022-10-15T14:35:23.847Z,21.58
2022-10-15T14:38:01.268Z,19.38
2022-10-15T14:40:29.471Z,19.98
2022-10-15T14:43:04.607Z,18.85
2022-10-15T14:45:33.421Z,20.38
2022-10-15T14:48:03.031Z,20.48
2022-10-15T14:50:32.594Z,20.15
2022-10-15T14:53:03.915Z,19.45
2022-10-15T14:55:33.501Z,23.10
2022-10-15T14:58:02.322Z,18.67
2022-10-15T15:00:32.408Z,18.90
2022-10-15T15:03:01.326Z,19.10
2022-10-15T15:05:29.719Z,17.85
2022-10-15T15:07:58.884Z,20.70
2022-10-15T15:10:29.509Z,23.83
2022-10-15T15:12:57.810Z,23.45
2022-10-15T15:15:26.751Z,21.40
2022-10-15T15:17:54.772Z,17.13
2022-10-15T15:20:24.170Z,18.52
2022-10-15T15:22:53.020Z,22.38
2022-10-15T15:25:22.431Z,18.88
2022-10-15T15:27:51.874Z,17.05
2022-10-15T15:30:20.864Z,21.50
2022-10-15T15:32:49.123Z,22.13
2022-10-15T15:35:21.619Z,19.02
2022-10-15T15:37:52.092Z,18.58
2022-10-15T15:40:22.338Z,18.77
2022-10-15T15:42:51.729Z,17.90
2022-10-15T15:45:21.438Z,14.57
2022-10-15T15:47:53.120Z,15.45
2022-10-15T15:50:21.788Z,18.63
2022-10-15T15:52:49.856Z,18.67
2022-10-15T15:55:18.225Z,16.30
2022-10-15T15:57:47.470Z,14.63
2022-10-15T16:00:17.193Z,18.13
2022-10-15T16:02:45.313Z,15.27
2022-10-15T16:05:16.682Z,20.13
2022-10-15T16:07:44.834Z,14.20
2022-10-15T16:10:13.033Z,18.05
2022-10-15T16:12:41.197Z,16.48
2022-10-15T16:15:13.551Z,22.92
2022-10-15T16:17:44.399Z,15.55
2022-10-15T16:20:12.767Z,17.80
2022-10-15T16:22:40.954Z,22.25
2022-10-15T16:25:09.852Z,14.90
2022-10-15T16:27:37.894Z,16.23
2022-10-15T16:30:06.902Z,18.02
2022-10-15T16:32:34.989Z,13.98
2022-10-15T16:35:04.761Z,15.80
2022-10-15T16:37:32.786Z,16.92
2022-10-15T16:40:00.800Z,18.70
2022-10-15T16:42:28.836Z,16.77
2022-10-15T16:44:56.880Z,14.80
2022-10-15T16:47:25.293Z,16.45
2022-10-15T16:49:55.141Z,17.33
2022-10-15T16:52:24.846Z,17.05
2022-10-15T16:54:53.097Z,13.30
2022-10-15T16:57:21.072Z,15.63
2022-10-15T16:59:49.119Z,15.48
2022-10-15T17:02:17.176Z,14.88
2022-10-15T17:04:45.195Z,21.73
2022-10-15T17:07:13.276Z,14.50
2022-10-15T17:09:44.906Z,15.55
2022-10-15T17:12:13.060Z,14.38
2022-10-15T17:14:41.120Z,15.80
2022-10-15T17:17:09.224Z,12.93
2022-10-15T17:19:37.289Z,15.60
2022-10-15T17:22:05.370Z,14.65
2022-10-15T17:24:33.466Z,15.10
2022-10-15T17:27:02.871Z,14.35
2022-10-15T17:29:33.494Z,12.15
2022-10-15T17:32:01.921Z,15.38
2022-10-15T17:34:30.056Z,13.75
2022-10-15T17:36:58.131Z,15.07
2022-10-15T17:39:26.148Z,15.40
2022-10-15T17:41:54.219Z,13.90
2022-10-15T17:44:23.681Z,13.98
2022-10-15T17:46:52.729Z,20.23
2022-10-15T17:49:27.366Z,16.60
2022-10-15T17:51:55.533Z,14.38
2022-10-15T17:54:23.727Z,14.55
2022-10-15T17:56:51.981Z,14.52
2022-10-15T17:59:20.113Z,13.65
2022-10-15T18:01:58.832Z,12.35
2022-10-15T18:04:28.385Z,14.55
2022-10-15T18:06:56.760Z,12.82
2022-10-15T18:09:25.033Z,12.15
2022-10-15T18:11:56.323Z,13.07
2022-10-15T18:14:28.705Z,15.93
2022-10-15T18:16:58.211Z,13.25
2022-10-15T18:19:26.883Z,11.57
2022-10-15T18:21:55.405Z,13.95
2022-10-15T18:24:23.764Z,11.40
2022-10-15T18:26:52.135Z,13.23
2022-10-15T18:29:20.544Z,10.80
2022-10-15T18:31:51.231Z,15.55
2022-10-15T18:34:23.151Z,13.40
2022-10-15T18:36:51.268Z,11.93
2022-10-15T18:39:19.429Z,12.13
2022-10-15T18:41:47.626Z,13.77
2022-10-15T18:44:16.828Z,11.75
2022-10-15T18:46:45.533Z,15.43
2022-10-15T18:49:14.245Z,13.15
2022-10-15T18:51:45.821Z,14.32
2022-10-15T18:54:13.989Z,12.25
2022-10-15T18:56:42.053Z,12.02
2022-10-15T18:59:10.348Z,13.68
2022-10-15T19:01:41.706Z,12.68
2022-10-15T19:04:10.965Z,12.88
2022-10-15T19:06:40.786Z,14.70
2022-10-15T19:09:11.169Z,14.98
2022-10-15T19:11:39.553Z,13.00
2022-10-15T19:14:07.887Z,13.05
2022-10-15T19:16:36.350Z,14.13
2022-10-15T19:19:09.662Z,13.48
2022-10-15T19:21:38.330Z,12.45
2022-10-15T19:24:06.818Z,14.82
2022-10-15T19:26:36.363Z,13.07
2022-10-15T19:29:04.447Z,14.25
2022-10-15T19:31:33.318Z,13.32
2022-10-15T19:34:01.333Z,18.85
2022-10-15T19:36:33.760Z,11.65
2022-10-15T19:39:02.389Z,14.55
2022-10-15T19:41:30.382Z,12.98
2022-10-15T19:43:59.810Z,12.40
2022-10-15T19:46:29.239Z,12.82
2022-10-15T19:48:57.553Z,13.65
2022-10-15T19:51:26.257Z,14.50
2022-10-15T19:53:56.282Z,14.10
2022-10-15T19:56:25.676Z,12.95
2022-10-15T19:58:55.462Z,13.50
2022-10-15T20:01:24.895Z,15.68
2022-10-15T20:03:52.978Z,17.33
2022-10-15T20:06:23.698Z,16.02
2022-10-15T20:09:00.974Z,13.20
2022-10-15T20:11:30.385Z,13.73
2022-10-15T20:13:59.509Z,14.23
2022-10-15T20:16:32.752Z,14.05
2022-10-15T20:19:03.146Z,14.07
2022-10-15T20:21:31.569Z,14.93
2022-10-15T20:23:59.714Z,11.60
2022-10-15T20:26:27.778Z,13.60
2022-10-15T20:28:55.857Z,11.38
2022-10-15T20:31:28.565Z,11.35
2022-10-15T20:33:57.992Z,12.02
2022-10-15T20:36:27.362Z,12.63
2022-10-15T20:38:57.372Z,14.20
2022-10-15T20:41:25.488Z,13.52
2022-10-15T20:43:54.918Z,12.15
2022-10-15T20:46:25.542Z,13.73
2022-10-15T20:48:53.574Z,11.00
2022-10-15T20:51:27.609Z,12.38
2022-10-15T20:53:56.958Z,11.68
2022-10-15T20:56:25.005Z,12.73
2022-10-15T20:58:53.079Z,10.77
2022-10-15T21:01:21.161Z,15.43
2022-10-15T21:03:49.195Z,12.77
2022-10-15T21:06:17.700Z,14.60
2022-10-15T21:08:47.126Z,13.20
2022-10-15T21:11:15.179Z,13.45
2022-10-15T21:13:43.223Z,11.45
2022-10-15T21:16:11.263Z,14.60
2022-10-15T21:18:39.690Z,12.70
2022-10-15T21:21:08.518Z,12.07
2022-10-15T21:23:36.778Z,14.18
2022-10-15T21:26:10.022Z,12.57
2022-10-15T21:28:38.155Z,14.13
2022-10-15T21:31:06.559Z,11.15
2022-10-15T21:33:36.004Z,12.45
2022-10-15T21:36:13.812Z,15.68
2022-10-15T21:38:41.859Z,13.85
2022-10-15T21:41:11.299Z,10.55
2022-10-15T21:43:39.421Z,20.25
2022-10-15T21:46:08.175Z,13.63
2022-10-15T21:48:37.578Z,11.70
2022-10-15T21:51:05.914Z,18.65
2022-10-15T21:53:35.312Z,11.25
2022-10-15T21:56:05.591Z,15.75
2022-10-15T21:58:35.053Z,12.45
2022-10-15T22:01:09.459Z,12.57
2022-10-15T22:03:37.486Z,10.45
2022-10-15T22:06:05.644Z,10.77
2022-10-15T22:08:33.864Z,11.98
2022-10-15T22:11:09.691Z,11.32
2022-10-15T22:13:39.245Z,12.30
2022-10-15T22:16:07.564Z,12.07
2022-10-15T22:18:35.563Z,9.27
2022-10-15T22:21:10.937Z,10.77
2022-10-15T22:23:38.925Z,11.27
2022-10-15T22:26:07.131Z,11.52
2022-10-15T22:28:35.156Z,10.15
2022-10-15T22:31:05.549Z,10.57
2022-10-15T22:33:34.502Z,9.88
2022-10-15T22:36:03.040Z,10.05
2022-10-15T22:38:31.035Z,10.13
2022-10-15T22:40:59.187Z,10.77
2022-10-15T22:43:27.623Z,10.50
2022-10-15T22:45:59.603Z,11.23
2022-10-15T22:48:29.034Z,9.30
2022-10-15T22:50:57.623Z,9.57
2022-10-15T22:53:25.722Z,8.73
2022-10-15T22:55:57.629Z,9.80
2022-10-15T22:58:25.691Z,10.52
2022-10-15T23:00:53.881Z,9.90
2022-10-15T23:03:22.183Z,10.23
2022-10-15T23:05:54.779Z,10.70
2022-10-15T23:08:22.981Z,10.48
2022-10-15T23:10:50.999Z,9.13
2022-10-15T23:13:19.007Z,9.75
2022-10-15T23:15:47.030Z,10.07
2022-10-15T23:18:15.030Z,10.55
2022-10-15T23:20:43.063Z,9.50
2022-10-15T23:23:12.438Z,11.93
2022-10-15T23:25:40.523Z,9.50
2022-10-15T23:28:08.497Z,11.13
2022-10-15T23:30:36.514Z,9.45
2022-10-15T23:33:04.687Z,11.10
2022-10-15T23:35:32.705Z,9.90
2022-10-15T23:38:00.717Z,10.10
2022-10-15T23:40:31.010Z,10.32
2022-10-15T23:42:59.029Z,10.50
2022-10-15T23:45:27.021Z,9.07
2022-10-15T23:47:56.162Z,11.13
2022-10-15T23:50:24.186Z,10.27
2022-10-15T23:52:52.678Z,10.05
2022-10-15T23:55:20.671Z,9.48
2022-10-15T23:57:50.057Z,10.13
